sensor_id;sensor_type;location;lat;lon;timestamp;P1;durP1;ratioP1;P2;durP2;ratioP2
56039;SDS011;43937;41.366;2.072;2023-07-29T00:00:49;8.48;;;2.50;;
56039;SDS011;43937;41.366;2.072;2023-07-29T00:03:15;6.63;;;2.80;;
56039;SDS011;43937;41.366;2.072;2023-07-29T00:05:40;9.93;;;2.88;;
56039;SDS011;43937;41.366;2.072;2023-07-29T00:08:06;6.70;;;2.85;;
56039;SDS011;43937;41.366;2.072;2023-07-29T00:10:32;7.28;;;2.40;;
56039;SDS011;43937;41.366;2.072;2023-07-29T00:13:00;7.28;;;2.40;;
56039;SDS011;43937;41.366;2.072;2023-07-29T00:15:26;6.10;;;2.70;;
56039;SDS011;43937;41.366;2.072;2023-07-29T00:17:51;8.32;;;2.80;;
56039;SDS011;43937;41.366;2.072;2023-07-29T00:20:17;7.55;;;2.83;;
56039;SDS011;43937;41.366;2.072;2023-07-29T00:22:42;9.73;;;3.20;;
56039;SDS011;43937;41.366;2.072;2023-07-29T00:25:08;8.27;;;3.20;;
56039;SDS011;43937;41.366;2.072;2023-07-29T00:27:33;6.45;;;2.80;;
56039;SDS011;43937;41.366;2.072;2023-07-29T00:29:59;9.38;;;2.70;;
56039;SDS011;43937;41.366;2.072;2023-07-29T00:32:24;8.93;;;2.53;;
56039;SDS011;43937;41.366;2.072;2023-07-29T00:34:50;8.38;;;2.60;;
56039;SDS011;43937;41.366;2.072;2023-07-29T00:37:15;6.10;;;2.50;;
56039;SDS011;43937;41.366;2.072;2023-07-29T00:39:41;6.43;;;2.53;;
56039;SDS011;43937;41.366;2.072;2023-07-29T00:42:06;11.48;;;3.25;;
56039;SDS011;43937;41.366;2.072;2023-07-29T00:44:32;10.30;;;3.17;;
56039;SDS011;43937;41.366;2.072;2023-07-29T00:46:57;8.65;;;3.03;;
56039;SDS011;43937;41.366;2.072;2023-07-29T00:49:26;7.75;;;3.00;;
56039;SDS011;43937;41.366;2.072;2023-07-29T00:51:51;7.25;;;3.25;;
56039;SDS011;43937;41.366;2.072;2023-07-29T00:54:17;9.52;;;3.10;;
56039;SDS011;43937;41.366;2.072;2023-07-29T00:56:42;10.90;;;3.53;;
56039;SDS011;43937;41.366;2.072;2023-07-29T00:59:08;8.80;;;2.80;;
56039;SDS011;43937;41.366;2.072;2023-07-29T01:01:33;6.28;;;2.53;;
56039;SDS011;43937;41.366;2.072;2023-07-29T01:03:59;5.82;;;2.60;;
56039;SDS011;43937;41.366;2.072;2023-07-29T01:09:44;6.65;;;2.70;;
56039;SDS011;43937;41.366;2.072;2023-07-29T01:13:13;8.05;;;2.38;;
56039;SDS011;43937;41.366;2.072;2023-07-29T01:16:21;8.85;;;3.00;;
56039;SDS011;43937;41.366;2.072;2023-07-29T01:18:49;7.60;;;2.88;;
56039;SDS011;43937;41.366;2.072;2023-07-29T01:21:18;11.45;;;3.00;;
56039;SDS011;43937;41.366;2.072;2023-07-29T01:23:46;9.80;;;2.80;;
56039;SDS011;43937;41.366;2.072;2023-07-29T01:26:11;9.02;;;3.20;;
56039;SDS011;43937;41.366;2.072;2023-07-29T01:28:37;7.30;;;2.92;;
56039;SDS011;43937;41.366;2.072;2023-07-29T01:34:02;7.78;;;3.40;;
56039;SDS011;43937;41.366;2.072;2023-07-29T01:36:34;11.90;;;3.85;;
56039;SDS011;43937;41.366;2.072;2023-07-29T01:39:04;10.15;;;3.55;;
56039;SDS011;43937;41.366;2.072;2023-07-29T01:41:30;11.10;;;3.50;;
56039;SDS011;43937;41.366;2.072;2023-07-29T01:43:56;11.35;;;4.00;;
56039;SDS011;43937;41.366;2.072;2023-07-29T01:46:22;8.93;;;3.65;;
56039;SDS011;43937;41.366;2.072;2023-07-29T01:48:47;7.38;;;3.60;;
56039;SDS011;43937;41.366;2.072;2023-07-29T01:51:14;12.15;;;3.70;;
56039;SDS011;43937;41.366;2.072;2023-07-29T01:53:39;9.63;;;3.60;;
56039;SDS011;43937;41.366;2.072;2023-07-29T01:58:05;12.45;;;4.00;;
56039;SDS011;43937;41.366;2.072;2023-07-29T02:00:31;9.60;;;3.65;;
56039;SDS011;43937;41.366;2.072;2023-07-29T02:02:56;7.70;;;3.40;;
56039;SDS011;43937;41.366;2.072;2023-07-29T02:05:21;10.35;;;3.80;;
56039;SDS011;43937;41.366;2.072;2023-07-29T02:07:47;8.15;;;3.50;;
56039;SDS011;43937;41.366;2.072;2023-07-29T02:10:12;12.23;;;3.95;;
56039;SDS011;43937;41.366;2.072;2023-07-29T02:12:38;9.68;;;4.40;;
56039;SDS011;43937;41.366;2.072;2023-07-29T02:15:04;11.25;;;4.55;;
56039;SDS011;43937;41.366;2.072;2023-07-29T02:17:30;11.15;;;3.92;;
56039;SDS011;43937;41.366;2.072;2023-07-29T02:19:56;10.98;;;4.80;;
56039;SDS011;43937;41.366;2.072;2023-07-29T02:22:21;10.68;;;4.40;;
56039;SDS011;43937;41.366;2.072;2023-07-29T02:24:47;12.05;;;4.43;;
56039;SDS011;43937;41.366;2.072;2023-07-29T02:27:12;11.70;;;4.30;;
56039;SDS011;43937;41.366;2.072;2023-07-29T02:29:38;8.02;;;3.95;;
56039;SDS011;43937;41.366;2.072;2023-07-29T02:32:03;8.35;;;4.15;;
56039;SDS011;43937;41.366;2.072;2023-07-29T02:34:29;9.95;;;3.78;;
56039;SDS011;43937;41.366;2.072;2023-07-29T02:36:55;9.45;;;4.13;;
56039;SDS011;43937;41.366;2.072;2023-07-29T02:40:14;10.10;;;4.22;;
56039;SDS011;43937;41.366;2.072;2023-07-29T02:42:39;12.57;;;4.43;;
56039;SDS011;43937;41.366;2.072;2023-07-29T02:45:05;7.10;;;4.07;;
56039;SDS011;43937;41.366;2.072;2023-07-29T02:47:34;10.55;;;4.43;;
56039;SDS011;43937;41.366;2.072;2023-07-29T02:50:00;10.38;;;4.53;;
56039;SDS011;43937;41.366;2.072;2023-07-29T02:52:25;6.78;;;4.03;;
56039;SDS011;43937;41.366;2.072;2023-07-29T02:54:50;7.63;;;3.70;;
56039;SDS011;43937;41.366;2.072;2023-07-29T02:57:16;10.07;;;3.95;;
56039;SDS011;43937;41.366;2.072;2023-07-29T02:59:42;8.27;;;4.00;;
56039;SDS011;43937;41.366;2.072;2023-07-29T03:02:08;11.23;;;4.30;;
56039;SDS011;43937;41.366;2.072;2023-07-29T03:04:33;11.23;;;4.13;;
56039;SDS011;43937;41.366;2.072;2023-07-29T03:06:58;12.10;;;4.00;;
56039;SDS011;43937;41.366;2.072;2023-07-29T03:09:25;12.02;;;4.03;;
56039;SDS011;43937;41.366;2.072;2023-07-29T03:11:50;12.48;;;4.13;;
56039;SDS011;43937;41.366;2.072;2023-07-29T03:14:17;9.13;;;4.38;;
56039;SDS011;43937;41.366;2.072;2023-07-29T03:16:43;11.85;;;4.40;;
56039;SDS011;43937;41.366;2.072;2023-07-29T03:19:08;11.35;;;4.68;;
56039;SDS011;43937;41.366;2.072;2023-07-29T03:21:34;11.00;;;4.28;;
56039;SDS011;43937;41.366;2.072;2023-07-29T03:23:59;9.15;;;4.20;;
56039;SDS011;43937;41.366;2.072;2023-07-29T03:26:25;8.85;;;4.63;;
56039;SDS011;43937;41.366;2.072;2023-07-29T03:28:50;9.73;;;5.07;;
56039;SDS011;43937;41.366;2.072;2023-07-29T03:31:16;12.15;;;5.32;;
56039;SDS011;43937;41.366;2.072;2023-07-29T03:33:42;16.38;;;6.18;;
56039;SDS011;43937;41.366;2.072;2023-07-29T03:36:07;13.57;;;5.32;;
56039;SDS011;43937;41.366;2.072;2023-07-29T03:38:33;12.15;;;5.18;;
56039;SDS011;43937;41.366;2.072;2023-07-29T03:41:00;13.27;;;5.68;;
56039;SDS011;43937;41.366;2.072;2023-07-29T03:43:27;12.50;;;5.78;;
56039;SDS011;43937;41.366;2.072;2023-07-29T03:45:53;11.20;;;5.15;;
56039;SDS011;43937;41.366;2.072;2023-07-29T03:48:18;14.05;;;5.50;;
56039;SDS011;43937;41.366;2.072;2023-07-29T03:50:44;9.98;;;5.22;;
56039;SDS011;43937;41.366;2.072;2023-07-29T03:53:09;13.43;;;6.07;;
56039;SDS011;43937;41.366;2.072;2023-07-29T03:55:35;11.20;;;5.60;;
56039;SDS011;43937;41.366;2.072;2023-07-29T03:58:00;11.95;;;5.80;;
56039;SDS011;43937;41.366;2.072;2023-07-29T04:00:26;12.88;;;5.07;;
56039;SDS011;43937;41.366;2.072;2023-07-29T04:02:52;9.13;;;5.07;;
56039;SDS011;43937;41.366;2.072;2023-07-29T04:05:18;8.63;;;4.40;;
56039;SDS011;43937;41.366;2.072;2023-07-29T04:07:43;12.50;;;4.90;;
56039;SDS011;43937;41.366;2.072;2023-07-29T04:10:09;14.07;;;4.85;;
56039;SDS011;43937;41.366;2.072;2023-07-29T04:12:35;11.20;;;4.60;;
56039;SDS011;43937;41.366;2.072;2023-07-29T04:15:13;9.13;;;4.75;;
56039;SDS011;43937;41.366;2.072;2023-07-29T04:17:38;7.63;;;4.22;;
56039;SDS011;43937;41.366;2.072;2023-07-29T04:20:04;11.40;;;5.40;;
56039;SDS011;43937;41.366;2.072;2023-07-29T04:22:30;14.48;;;5.50;;
56039;SDS011;43937;41.366;2.072;2023-07-29T04:24:55;10.88;;;6.13;;
56039;SDS011;43937;41.366;2.072;2023-07-29T04:27:21;15.02;;;5.88;;
56039;SDS011;43937;41.366;2.072;2023-07-29T04:29:46;15.65;;;6.22;;
56039;SDS011;43937;41.366;2.072;2023-07-29T04:32:12;15.60;;;6.22;;
56039;SDS011;43937;41.366;2.072;2023-07-29T04:34:37;11.93;;;6.25;;
56039;SDS011;43937;41.366;2.072;2023-07-29T04:37:02;15.90;;;5.97;;
56039;SDS011;43937;41.366;2.072;2023-07-29T04:39:28;12.52;;;5.70;;
56039;SDS011;43937;41.366;2.072;2023-07-29T04:41:53;11.98;;;5.60;;
56039;SDS011;43937;41.366;2.072;2023-07-29T04:44:19;15.55;;;5.82;;
56039;SDS011;43937;41.366;2.072;2023-07-29T04:46:44;12.23;;;5.20;;
56039;SDS011;43937;41.366;2.072;2023-07-29T04:49:10;13.82;;;5.53;;
56039;SDS011;43937;41.366;2.072;2023-07-29T04:51:35;13.20;;;5.43;;
56039;SDS011;43937;41.366;2.072;2023-07-29T04:54:02;16.02;;;5.30;;
56039;SDS011;43937;41.366;2.072;2023-07-29T04:56:27;10.85;;;5.55;;
56039;SDS011;43937;41.366;2.072;2023-07-29T04:58:53;13.45;;;5.10;;
56039;SDS011;43937;41.366;2.072;2023-07-29T05:01:18;13.45;;;5.10;;
56039;SDS011;43937;41.366;2.072;2023-07-29T05:03:44;12.65;;;4.85;;
56039;SDS011;43937;41.366;2.072;2023-07-29T05:08:09;12.25;;;5.55;;
56039;SDS011;43937;41.366;2.072;2023-07-29T05:10:34;10.82;;;5.47;;
56039;SDS011;43937;41.366;2.072;2023-07-29T05:13:00;13.45;;;5.70;;
56039;SDS011;43937;41.366;2.072;2023-07-29T05:15:25;12.52;;;5.85;;
56039;SDS011;43937;41.366;2.072;2023-07-29T05:17:51;15.20;;;5.90;;
56039;SDS011;43937;41.366;2.072;2023-07-29T05:20:16;15.27;;;5.78;;
56039;SDS011;43937;41.366;2.072;2023-07-29T05:22:42;12.75;;;5.95;;
56039;SDS011;43937;41.366;2.072;2023-07-29T05:25:07;15.10;;;5.70;;
56039;SDS011;43937;41.366;2.072;2023-07-29T05:27:33;19.67;;;6.00;;
56039;SDS011;43937;41.366;2.072;2023-07-29T05:29:58;11.70;;;5.40;;
56039;SDS011;43937;41.366;2.072;2023-07-29T05:32:24;13.07;;;5.30;;
56039;SDS011;43937;41.366;2.072;2023-07-29T05:34:49;16.92;;;5.43;;
56039;SDS011;43937;41.366;2.072;2023-07-29T05:37:15;12.15;;;5.03;;
56039;SDS011;43937;41.366;2.072;2023-07-29T05:39:41;13.40;;;4.80;;
56039;SDS011;43937;41.366;2.072;2023-07-29T05:42:06;16.55;;;4.97;;
56039;SDS011;43937;41.366;2.072;2023-07-29T05:44:33;13.02;;;5.25;;
56039;SDS011;43937;41.366;2.072;2023-07-29T05:46:58;10.07;;;4.55;;
56039;SDS011;43937;41.366;2.072;2023-07-29T05:49:24;10.60;;;4.63;;
56039;SDS011;43937;41.366;2.072;2023-07-29T05:51:49;11.60;;;4.72;;
56039;SDS011;43937;41.366;2.072;2023-07-29T05:54:17;9.75;;;4.32;;
56039;SDS011;43937;41.366;2.072;2023-07-29T05:56:43;12.38;;;4.40;;
56039;SDS011;43937;41.366;2.072;2023-07-29T05:59:08;11.43;;;4.97;;
56039;SDS011;43937;41.366;2.072;2023-07-29T06:01:34;11.75;;;4.57;;
56039;SDS011;43937;41.366;2.072;2023-07-29T06:04:00;15.25;;;4.72;;
56039;SDS011;43937;41.366;2.072;2023-07-29T06:06:25;10.60;;;4.28;;
56039;SDS011;43937;41.366;2.072;2023-07-29T06:08:51;15.25;;;3.97;;
56039;SDS011;43937;41.366;2.072;2023-07-29T06:11:16;9.48;;;3.92;;
56039;SDS011;43937;41.366;2.072;2023-07-29T06:13:42;7.97;;;3.17;;
56039;SDS011;43937;41.366;2.072;2023-07-29T06:16:07;7.43;;;3.40;;
56039;SDS011;43937;41.366;2.072;2023-07-29T06:18:33;11.48;;;4.00;;
56039;SDS011;43937;41.366;2.072;2023-07-29T06:20:58;10.48;;;3.63;;
56039;SDS011;43937;41.366;2.072;2023-07-29T06:23:23;14.73;;;3.70;;
56039;SDS011;43937;41.366;2.072;2023-07-29T06:25:49;7.88;;;3.58;;
56039;SDS011;43937;41.366;2.072;2023-07-29T06:28:14;12.20;;;3.90;;
56039;SDS011;43937;41.366;2.072;2023-07-29T06:30:40;14.77;;;4.00;;
56039;SDS011;43937;41.366;2.072;2023-07-29T06:33:05;11.52;;;3.95;;
56039;SDS011;43937;41.366;2.072;2023-07-29T06:35:31;10.70;;;3.63;;
56039;SDS011;43937;41.366;2.072;2023-07-29T06:37:56;16.10;;;4.10;;
56039;SDS011;43937;41.366;2.072;2023-07-29T06:40:22;8.10;;;3.63;;
56039;SDS011;43937;41.366;2.072;2023-07-29T06:42:47;13.82;;;3.70;;
56039;SDS011;43937;41.366;2.072;2023-07-29T06:45:13;12.07;;;3.50;;
56039;SDS011;43937;41.366;2.072;2023-07-29T06:47:38;11.48;;;2.88;;
56039;SDS011;43937;41.366;2.072;2023-07-29T06:50:04;12.52;;;5.95;;
56039;SDS011;43937;41.366;2.072;2023-07-29T06:53:54;8.73;;;3.22;;
56039;SDS011;43937;41.366;2.072;2023-07-29T06:56:20;9.15;;;3.00;;
56039;SDS011;43937;41.366;2.072;2023-07-29T06:58:45;10.77;;;3.33;;
56039;SDS011;43937;41.366;2.072;2023-07-29T07:01:11;9.20;;;2.58;;
56039;SDS011;43937;41.366;2.072;2023-07-29T07:03:36;8.43;;;2.20;;
56039;SDS011;43937;41.366;2.072;2023-07-29T07:06:02;7.05;;;1.73;;
56039;SDS011;43937;41.366;2.072;2023-07-29T07:08:28;6.03;;;2.05;;
56039;SDS011;43937;41.366;2.072;2023-07-29T07:10:55;7.07;;;2.22;;
56039;SDS011;43937;41.366;2.072;2023-07-29T07:13:21;5.95;;;2.08;;
56039;SDS011;43937;41.366;2.072;2023-07-29T07:17:28;6.70;;;2.97;;
56039;SDS011;43937;41.366;2.072;2023-07-29T07:19:54;8.95;;;2.20;;
56039;SDS011;43937;41.366;2.072;2023-07-29T07:22:19;6.03;;;1.92;;
56039;SDS011;43937;41.366;2.072;2023-07-29T07:24:45;7.72;;;2.65;;
56039;SDS011;43937;41.366;2.072;2023-07-29T07:27:10;8.70;;;2.95;;
56039;SDS011;43937;41.366;2.072;2023-07-29T07:29:36;10.07;;;2.53;;
56039;SDS011;43937;41.366;2.072;2023-07-29T07:32:01;6.53;;;2.03;;
56039;SDS011;43937;41.366;2.072;2023-07-29T07:34:27;4.88;;;2.00;;
56039;SDS011;43937;41.366;2.072;2023-07-29T07:36:52;8.52;;;2.60;;
56039;SDS011;43937;41.366;2.072;2023-07-29T07:39:18;9.43;;;2.20;;
56039;SDS011;43937;41.366;2.072;2023-07-29T07:41:43;5.40;;;2.00;;
56039;SDS011;43937;41.366;2.072;2023-07-29T07:44:09;5.80;;;1.92;;
56039;SDS011;43937;41.366;2.072;2023-07-29T07:46:36;6.28;;;1.88;;
56039;SDS011;43937;41.366;2.072;2023-07-29T07:49:01;8.18;;;2.10;;
56039;SDS011;43937;41.366;2.072;2023-07-29T07:51:27;7.82;;;2.10;;
56039;SDS011;43937;41.366;2.072;2023-07-29T07:53:52;8.43;;;2.08;;
56039;SDS011;43937;41.366;2.072;2023-07-29T07:57:36;7.30;;;2.40;;
56039;SDS011;43937;41.366;2.072;2023-07-29T08:00:02;10.80;;;3.97;;
56039;SDS011;43937;41.366;2.072;2023-07-29T08:02:29;11.23;;;4.03;;
56039;SDS011;43937;41.366;2.072;2023-07-29T08:04:55;7.78;;;2.58;;
56039;SDS011;43937;41.366;2.072;2023-07-29T08:07:20;8.00;;;2.80;;
56039;SDS011;43937;41.366;2.072;2023-07-29T08:09:46;9.07;;;2.50;;
56039;SDS011;43937;41.366;2.072;2023-07-29T08:12:11;5.95;;;2.40;;
56039;SDS011;43937;41.366;2.072;2023-07-29T08:14:36;8.80;;;2.40;;
56039;SDS011;43937;41.366;2.072;2023-07-29T08:17:02;4.28;;;1.70;;
56039;SDS011;43937;41.366;2.072;2023-07-29T08:19:28;8.38;;;2.40;;
56039;SDS011;43937;41.366;2.072;2023-07-29T08:21:53;6.53;;;2.05;;
56039;SDS011;43937;41.366;2.072;2023-07-29T08:24:19;5.28;;;2.22;;
56039;SDS011;43937;41.366;2.072;2023-07-29T08:26:44;5.85;;;1.92;;
56039;SDS011;43937;41.366;2.072;2023-07-29T08:29:10;7.30;;;1.85;;
56039;SDS011;43937;41.366;2.072;2023-07-29T08:31:35;7.50;;;2.17;;
56039;SDS011;43937;41.366;2.072;2023-07-29T08:34:01;5.70;;;1.90;;
56039;SDS011;43937;41.366;2.072;2023-07-29T08:36:26;10.82;;;1.83;;
56039;SDS011;43937;41.366;2.072;2023-07-29T08:38:52;4.63;;;1.70;;
56039;SDS011;43937;41.366;2.072;2023-07-29T08:41:29;8.20;;;1.92;;
56039;SDS011;43937;41.366;2.072;2023-07-29T08:46:48;11.00;;;1.85;;
56039;SDS011;43937;41.366;2.072;2023-07-29T08:49:15;5.15;;;1.70;;
56039;SDS011;43937;41.366;2.072;2023-07-29T08:51:46;8.45;;;1.67;;
56039;SDS011;43937;41.366;2.072;2023-07-29T08:54:13;8.43;;;1.85;;
56039;SDS011;43937;41.366;2.072;2023-07-29T08:56:40;6.50;;;1.85;;
56039;SDS011;43937;41.366;2.072;2023-07-29T08:59:07;10.13;;;2.33;;
56039;SDS011;43937;41.366;2.072;2023-07-29T09:01:36;7.43;;;2.85;;
56039;SDS011;43937;41.366;2.072;2023-07-29T09:04:03;6.07;;;2.38;;
56039;SDS011;43937;41.366;2.072;2023-07-29T09:06:29;9.98;;;2.13;;
56039;SDS011;43937;41.366;2.072;2023-07-29T09:08:56;7.35;;;3.35;;
56039;SDS011;43937;41.366;2.072;2023-07-29T09:11:23;6.10;;;2.05;;
56039;SDS011;43937;41.366;2.072;2023-07-29T09:13:49;8.70;;;2.10;;
56039;SDS011;43937;41.366;2.072;2023-07-29T09:16:14;11.57;;;1.95;;
56039;SDS011;43937;41.366;2.072;2023-07-29T09:18:40;14.75;;;6.00;;
56039;SDS011;43937;41.366;2.072;2023-07-29T09:21:05;8.32;;;3.72;;
56039;SDS011;43937;41.366;2.072;2023-07-29T09:23:43;7.35;;;1.88;;
56039;SDS011;43937;41.366;2.072;2023-07-29T09:26:10;4.90;;;1.92;;
56039;SDS011;43937;41.366;2.072;2023-07-29T09:28:37;6.10;;;1.70;;
56039;SDS011;43937;41.366;2.072;2023-07-29T09:31:03;6.78;;;1.98;;
56039;SDS011;43937;41.366;2.072;2023-07-29T09:33:32;6.00;;;1.90;;
56039;SDS011;43937;41.366;2.072;2023-07-29T09:36:01;6.95;;;2.03;;
56039;SDS011;43937;41.366;2.072;2023-07-29T09:38:28;6.22;;;1.95;;
56039;SDS011;43937;41.366;2.072;2023-07-29T09:40:57;9.27;;;1.75;;
56039;SDS011;43937;41.366;2.072;2023-07-29T09:43:30;6.68;;;1.98;;
56039;SDS011;43937;41.366;2.072;2023-07-29T09:45:59;9.32;;;1.70;;
56039;SDS011;43937;41.366;2.072;2023-07-29T09:48:32;3.92;;;1.60;;
56039;SDS011;43937;41.366;2.072;2023-07-29T09:51:00;4.30;;;1.90;;
56039;SDS011;43937;41.366;2.072;2023-07-29T09:53:38;9.20;;;3.53;;
56039;SDS011;43937;41.366;2.072;2023-07-29T09:56:05;7.80;;;2.70;;
56039;SDS011;43937;41.366;2.072;2023-07-29T09:58:30;13.27;;;3.80;;
56039;SDS011;43937;41.366;2.072;2023-07-29T10:00:57;4.70;;;1.92;;
56039;SDS011;43937;41.366;2.072;2023-07-29T10:03:23;11.02;;;3.78;;
56039;SDS011;43937;41.366;2.072;2023-07-29T10:05:50;8.85;;;3.13;;
56039;SDS011;43937;41.366;2.072;2023-07-29T10:08:16;10.63;;;2.83;;
56039;SDS011;43937;41.366;2.072;2023-07-29T10:10:43;11.73;;;3.60;;
56039;SDS011;43937;41.366;2.072;2023-07-29T10:13:09;6.07;;;2.85;;
56039;SDS011;43937;41.366;2.072;2023-07-29T10:15:35;9.52;;;2.50;;
56039;SDS011;43937;41.366;2.072;2023-07-29T10:18:01;5.47;;;2.28;;
56039;SDS011;43937;41.366;2.072;2023-07-29T10:20:28;5.55;;;1.90;;
56039;SDS011;43937;41.366;2.072;2023-07-29T10:22:56;10.75;;;2.33;;
56039;SDS011;43937;41.366;2.072;2023-07-29T10:25:25;7.28;;;2.00;;
56039;SDS011;43937;41.366;2.072;2023-07-29T10:28:01;6.13;;;1.70;;
56039;SDS011;43937;41.366;2.072;2023-07-29T10:30:30;7.20;;;2.10;;
56039;SDS011;43937;41.366;2.072;2023-07-29T10:32:58;5.57;;;1.60;;
56039;SDS011;43937;41.366;2.072;2023-07-29T10:35:24;7.60;;;2.10;;
56039;SDS011;43937;41.366;2.072;2023-07-29T10:37:50;8.80;;;2.13;;
56039;SDS011;43937;41.366;2.072;2023-07-29T10:40:18;7.80;;;2.33;;
56039;SDS011;43937;41.366;2.072;2023-07-29T10:43:00;7.70;;;2.33;;
56039;SDS011;43937;41.366;2.072;2023-07-29T10:45:28;10.80;;;2.65;;
56039;SDS011;43937;41.366;2.072;2023-07-29T10:48:05;10.25;;;2.88;;
56039;SDS011;43937;41.366;2.072;2023-07-29T10:50:37;15.60;;;2.17;;
56039;SDS011;43937;41.366;2.072;2023-07-29T10:53:02;7.38;;;2.70;;
56039;SDS011;43937;41.366;2.072;2023-07-29T10:55:29;8.40;;;2.92;;
56039;SDS011;43937;41.366;2.072;2023-07-29T10:58:08;12.90;;;2.33;;
56039;SDS011;43937;41.366;2.072;2023-07-29T11:00:36;6.88;;;2.10;;
56039;SDS011;43937;41.366;2.072;2023-07-29T11:03:02;6.43;;;2.00;;
56039;SDS011;43937;41.366;2.072;2023-07-29T11:08:28;9.23;;;1.90;;
56039;SDS011;43937;41.366;2.072;2023-07-29T11:11:04;6.30;;;2.00;;
56039;SDS011;43937;41.366;2.072;2023-07-29T11:13:34;6.45;;;1.73;;
56039;SDS011;43937;41.366;2.072;2023-07-29T11:16:00;7.05;;;1.80;;
56039;SDS011;43937;41.366;2.072;2023-07-29T11:18:27;5.97;;;1.80;;
56039;SDS011;43937;41.366;2.072;2023-07-29T11:20:58;9.23;;;1.67;;
56039;SDS011;43937;41.366;2.072;2023-07-29T11:23:27;8.10;;;1.73;;
56039;SDS011;43937;41.366;2.072;2023-07-29T11:25:55;6.97;;;1.88;;
56039;SDS011;43937;41.366;2.072;2023-07-29T11:28:20;6.10;;;1.88;;
56039;SDS011;43937;41.366;2.072;2023-07-29T11:30:47;6.45;;;1.50;;
56039;SDS011;43937;41.366;2.072;2023-07-29T11:33:14;8.15;;;1.75;;
56039;SDS011;43937;41.366;2.072;2023-07-29T11:35:43;8.73;;;2.00;;
56039;SDS011;43937;41.366;2.072;2023-07-29T11:38:08;8.65;;;1.95;;
56039;SDS011;43937;41.366;2.072;2023-07-29T11:40:44;13.80;;;2.20;;
56039;SDS011;43937;41.366;2.072;2023-07-29T11:43:18;6.60;;;2.30;;
56039;SDS011;43937;41.366;2.072;2023-07-29T11:45:44;11.32;;;2.75;;
56039;SDS011;43937;41.366;2.072;2023-07-29T11:48:10;8.52;;;3.63;;
56039;SDS011;43937;41.366;2.072;2023-07-29T11:50:35;7.20;;;2.85;;
56039;SDS011;43937;41.366;2.072;2023-07-29T11:54:08;13.93;;;2.38;;
56039;SDS011;43937;41.366;2.072;2023-07-29T11:56:34;8.45;;;2.20;;
56039;SDS011;43937;41.366;2.072;2023-07-29T11:59:01;10.80;;;2.15;;
56039;SDS011;43937;41.366;2.072;2023-07-29T12:01:28;32.85;;;3.15;;
56039;SDS011;43937;41.366;2.072;2023-07-29T12:03:54;6.57;;;1.88;;
56039;SDS011;43937;41.366;2.072;2023-07-29T12:06:22;16.63;;;2.70;;
56039;SDS011;43937;41.366;2.072;2023-07-29T12:08:50;6.00;;;2.17;;
56039;SDS011;43937;41.366;2.072;2023-07-29T12:11:16;7.35;;;2.45;;
56039;SDS011;43937;41.366;2.072;2023-07-29T12:13:42;8.88;;;2.47;;
56039;SDS011;43937;41.366;2.072;2023-07-29T12:16:08;10.52;;;2.00;;
56039;SDS011;43937;41.366;2.072;2023-07-29T12:18:34;14.55;;;2.17;;
56039;SDS011;43937;41.366;2.072;2023-07-29T12:21:01;6.65;;;1.90;;
56039;SDS011;43937;41.366;2.072;2023-07-29T12:23:27;12.25;;;2.70;;
56039;SDS011;43937;41.366;2.072;2023-07-29T12:25:57;10.15;;;2.20;;
56039;SDS011;43937;41.366;2.072;2023-07-29T12:28:24;10.23;;;1.98;;
56039;SDS011;43937;41.366;2.072;2023-07-29T12:30:53;8.73;;;2.67;;
56039;SDS011;43937;41.366;2.072;2023-07-29T12:36:14;9.93;;;2.65;;
56039;SDS011;43937;41.366;2.072;2023-07-29T12:38:42;8.02;;;2.08;;
56039;SDS011;43937;41.366;2.072;2023-07-29T12:41:08;20.60;;;2.72;;
56039;SDS011;43937;41.366;2.072;2023-07-29T12:43:33;11.43;;;2.40;;
56039;SDS011;43937;41.366;2.072;2023-07-29T12:46:00;7.88;;;2.10;;
56039;SDS011;43937;41.366;2.072;2023-07-29T12:48:25;9.40;;;2.28;;
56039;SDS011;43937;41.366;2.072;2023-07-29T12:50:51;8.95;;;2.33;;
56039;SDS011;43937;41.366;2.072;2023-07-29T12:53:16;11.18;;;2.20;;
56039;SDS011;43937;41.366;2.072;2023-07-29T12:55:43;9.25;;;2.20;;
56039;SDS011;43937;41.366;2.072;2023-07-29T12:58:08;5.13;;;2.10;;
56039;SDS011;43937;41.366;2.072;2023-07-29T13:00:33;7.40;;;2.33;;
56039;SDS011;43937;41.366;2.072;2023-07-29T13:02:59;9.60;;;1.88;;
56039;SDS011;43937;41.366;2.072;2023-07-29T13:05:24;7.50;;;1.80;;
56039;SDS011;43937;41.366;2.072;2023-07-29T13:07:50;6.95;;;2.15;;
56039;SDS011;43937;41.366;2.072;2023-07-29T13:10:16;7.95;;;1.90;;
56039;SDS011;43937;41.366;2.072;2023-07-29T13:12:41;8.38;;;2.10;;
56039;SDS011;43937;41.366;2.072;2023-07-29T13:15:07;7.85;;;2.30;;
56039;SDS011;43937;41.366;2.072;2023-07-29T13:17:33;7.65;;;2.47;;
56039;SDS011;43937;41.366;2.072;2023-07-29T13:19:59;14.35;;;3.70;;
56039;SDS011;43937;41.366;2.072;2023-07-29T13:22:24;12.20;;;2.60;;
56039;SDS011;43937;41.366;2.072;2023-07-29T13:24:50;8.25;;;2.40;;
56039;SDS011;43937;41.366;2.072;2023-07-29T13:27:15;7.53;;;2.15;;
56039;SDS011;43937;41.366;2.072;2023-07-29T13:29:41;9.15;;;2.03;;
56039;SDS011;43937;41.366;2.072;2023-07-29T13:32:08;8.43;;;2.25;;
56039;SDS011;43937;41.366;2.072;2023-07-29T13:34:34;5.85;;;1.60;;
56039;SDS011;43937;41.366;2.072;2023-07-29T13:36:59;7.47;;;1.90;;
56039;SDS011;43937;41.366;2.072;2023-07-29T13:39:25;7.40;;;1.98;;
56039;SDS011;43937;41.366;2.072;2023-07-29T13:41:50;5.43;;;1.80;;
56039;SDS011;43937;41.366;2.072;2023-07-29T13:44:16;8.05;;;2.05;;
56039;SDS011;43937;41.366;2.072;2023-07-29T13:46:41;6.93;;;1.70;;
56039;SDS011;43937;41.366;2.072;2023-07-29T13:49:07;9.07;;;1.73;;
56039;SDS011;43937;41.366;2.072;2023-07-29T13:51:32;8.70;;;1.90;;
56039;SDS011;43937;41.366;2.072;2023-07-29T13:53:58;8.10;;;2.13;;
56039;SDS011;43937;41.366;2.072;2023-07-29T13:56:23;8.02;;;1.70;;
56039;SDS011;43937;41.366;2.072;2023-07-29T13:58:49;4.78;;;1.63;;
56039;SDS011;43937;41.366;2.072;2023-07-29T14:01:14;4.40;;;1.80;;
56039;SDS011;43937;41.366;2.072;2023-07-29T14:03:39;6.82;;;1.70;;
56039;SDS011;43937;41.366;2.072;2023-07-29T14:06:05;10.57;;;2.00;;
56039;SDS011;43937;41.366;2.072;2023-07-29T14:08:30;4.97;;;1.75;;
56039;SDS011;43937;41.366;2.072;2023-07-29T14:10:56;5.68;;;1.75;;
56039;SDS011;43937;41.366;2.072;2023-07-29T14:13:21;9.43;;;2.10;;
56039;SDS011;43937;41.366;2.072;2023-07-29T14:15:47;6.82;;;1.92;;
56039;SDS011;43937;41.366;2.072;2023-07-29T14:18:12;5.53;;;1.73;;
56039;SDS011;43937;41.366;2.072;2023-07-29T14:20:38;6.95;;;2.00;;
56039;SDS011;43937;41.366;2.072;2023-07-29T14:23:04;4.70;;;2.00;;
56039;SDS011;43937;41.366;2.072;2023-07-29T14:25:29;7.28;;;1.70;;
56039;SDS011;43937;41.366;2.072;2023-07-29T14:27:55;8.77;;;1.60;;
56039;SDS011;43937;41.366;2.072;2023-07-29T14:30:20;8.60;;;1.75;;
56039;SDS011;43937;41.366;2.072;2023-07-29T14:32:45;6.32;;;1.98;;
56039;SDS011;43937;41.366;2.072;2023-07-29T14:35:11;8.65;;;2.40;;
56039;SDS011;43937;41.366;2.072;2023-07-29T14:37:37;9.18;;;1.90;;
56039;SDS011;43937;41.366;2.072;2023-07-29T14:40:03;8.93;;;1.75;;
56039;SDS011;43937;41.366;2.072;2023-07-29T14:42:29;5.03;;;1.77;;
56039;SDS011;43937;41.366;2.072;2023-07-29T14:44:55;7.45;;;1.90;;
56039;SDS011;43937;41.366;2.072;2023-07-29T14:47:20;5.55;;;1.67;;
56039;SDS011;43937;41.366;2.072;2023-07-29T14:49:46;32.70;;;2.78;;
56039;SDS011;43937;41.366;2.072;2023-07-29T14:52:11;7.63;;;1.95;;
56039;SDS011;43937;41.366;2.072;2023-07-29T14:54:37;17.05;;;1.88;;
56039;SDS011;43937;41.366;2.072;2023-07-29T14:57:02;8.75;;;1.77;;
56039;SDS011;43937;41.366;2.072;2023-07-29T14:59:30;8.35;;;1.80;;
56039;SDS011;43937;41.366;2.072;2023-07-29T15:01:55;8.02;;;1.80;;
56039;SDS011;43937;41.366;2.072;2023-07-29T15:04:21;8.52;;;1.75;;